sensor_id;sensor_type;location;lat;lon;timestamp;P1;durP1;ratioP1;P2;durP2;ratioP2
30824;SDS011;17550;45.486;12.222;2023-06-14T00:01:43;10.85;;;8.85;;
30824;SDS011;17550;45.486;12.222;2023-06-14T00:04:10;12.30;;;8.32;;
30824;SDS011;17550;45.486;12.222;2023-06-14T00:06:37;12.45;;;8.90;;
30824;SDS011;17550;45.486;12.222;2023-06-14T00:09:03;11.88;;;9.20;;
30824;SDS011;17550;45.486;12.222;2023-06-14T00:11:30;12.95;;;9.07;;
30824;SDS011;17550;45.486;12.222;2023-06-14T00:13:56;14.15;;;9.38;;
30824;SDS011;17550;45.486;12.222;2023-06-14T00:16:22;12.32;;;8.70;;
30824;SDS011;17550;45.486;12.222;2023-06-14T00:18:48;13.02;;;9.45;;
30824;SDS011;17550;45.486;12.222;2023-06-14T00:21:13;17.02;;;9.70;;
30824;SDS011;17550;45.486;12.222;2023-06-14T00:23:39;15.98;;;10.40;;
30824;SDS011;17550;45.486;12.222;2023-06-14T00:26:05;12.15;;;9.30;;
30824;SDS011;17550;45.486;12.222;2023-06-14T00:28:31;13.70;;;9.77;;
30824;SDS011;17550;45.486;12.222;2023-06-14T00:30:56;12.15;;;9.90;;
30824;SDS011;17550;45.486;12.222;2023-06-14T00:33:22;13.40;;;9.85;;
30824;SDS011;17550;45.486;12.222;2023-06-14T00:35:48;13.68;;;9.50;;
30824;SDS011;17550;45.486;12.222;2023-06-14T00:38:13;14.93;;;10.43;;
30824;SDS011;17550;45.486;12.222;2023-06-14T00:40:39;16.58;;;10.25;;
30824;SDS011;17550;45.486;12.222;2023-06-14T00:43:05;14.15;;;9.60;;
30824;SDS011;17550;45.486;12.222;2023-06-14T00:45:30;15.15;;;9.05;;
30824;SDS011;17550;45.486;12.222;2023-06-14T00:48:00;15.35;;;9.40;;
30824;SDS011;17550;45.486;12.222;2023-06-14T00:50:27;12.25;;;9.40;;
30824;SDS011;17550;45.486;12.222;2023-06-14T00:52:54;12.57;;;9.68;;
30824;SDS011;17550;45.486;12.222;2023-06-14T00:55:21;12.35;;;9.93;;
30824;SDS011;17550;45.486;12.222;2023-06-14T00:57:47;14.07;;;10.80;;
30824;SDS011;17550;45.486;12.222;2023-06-14T01:00:14;14.93;;;11.52;;
30824;SDS011;17550;45.486;12.222;2023-06-14T01:02:40;14.60;;;10.50;;
30824;SDS011;17550;45.486;12.222;2023-06-14T01:05:06;17.58;;;10.07;;
30824;SDS011;17550;45.486;12.222;2023-06-14T01:10:34;11.10;;;9.43;;
30824;SDS011;17550;45.486;12.222;2023-06-14T01:13:21;16.42;;;10.80;;
30824;SDS011;17550;45.486;12.222;2023-06-14T01:16:01;13.43;;;10.83;;
30824;SDS011;17550;45.486;12.222;2023-06-14T01:18:28;15.52;;;11.43;;
30824;SDS011;17550;45.486;12.222;2023-06-14T01:20:55;13.93;;;9.98;;
30824;SDS011;17550;45.486;12.222;2023-06-14T01:23:21;12.98;;;10.18;;
30824;SDS011;17550;45.486;12.222;2023-06-14T01:25:48;14.07;;;10.02;;
30824;SDS011;17550;45.486;12.222;2023-06-14T01:28:17;12.93;;;10.50;;
30824;SDS011;17550;45.486;12.222;2023-06-14T01:30:46;13.98;;;9.80;;
30824;SDS011;17550;45.486;12.222;2023-06-14T01:33:15;14.55;;;10.10;;
30824;SDS011;17550;45.486;12.222;2023-06-14T01:35:43;15.80;;;10.77;;
30824;SDS011;17550;45.486;12.222;2023-06-14T01:38:10;14.88;;;10.63;;
30824;SDS011;17550;45.486;12.222;2023-06-14T01:40:38;13.55;;;10.38;;
30824;SDS011;17550;45.486;12.222;2023-06-14T01:43:04;15.77;;;10.70;;
30824;SDS011;17550;45.486;12.222;2023-06-14T01:45:31;14.10;;;10.52;;
30824;SDS011;17550;45.486;12.222;2023-06-14T01:47:59;15.48;;;11.15;;
30824;SDS011;17550;45.486;12.222;2023-06-14T01:50:30;16.45;;;10.73;;
30824;SDS011;17550;45.486;12.222;2023-06-14T01:52:56;15.27;;;11.07;;
30824;SDS011;17550;45.486;12.222;2023-06-14T01:55:22;18.77;;;10.98;;
30824;SDS011;17550;45.486;12.222;2023-06-14T01:57:49;15.00;;;10.60;;
30824;SDS011;17550;45.486;12.222;2023-06-14T02:00:16;16.35;;;11.27;;
30824;SDS011;17550;45.486;12.222;2023-06-14T02:02:43;13.50;;;11.95;;
30824;SDS011;17550;45.486;12.222;2023-06-14T02:05:09;15.02;;;12.13;;
30824;SDS011;17550;45.486;12.222;2023-06-14T02:07:35;13.02;;;10.15;;
30824;SDS011;17550;45.486;12.222;2023-06-14T02:10:02;17.25;;;10.65;;
30824;SDS011;17550;45.486;12.222;2023-06-14T02:12:28;14.27;;;10.43;;
30824;SDS011;17550;45.486;12.222;2023-06-14T02:14:54;12.65;;;10.63;;
30824;SDS011;17550;45.486;12.222;2023-06-14T02:17:21;12.25;;;10.55;;
30824;SDS011;17550;45.486;12.222;2023-06-14T02:19:47;14.70;;;10.23;;
30824;SDS011;17550;45.486;12.222;2023-06-14T02:22:12;12.88;;;10.15;;
30824;SDS011;17550;45.486;12.222;2023-06-14T02:24:40;14.32;;;10.60;;
30824;SDS011;17550;45.486;12.222;2023-06-14T02:27:06;13.93;;;11.30;;
30824;SDS011;17550;45.486;12.222;2023-06-14T02:29:32;15.13;;;9.60;;
30824;SDS011;17550;45.486;12.222;2023-06-14T02:31:57;16.23;;;9.95;;
30824;SDS011;17550;45.486;12.222;2023-06-14T02:34:23;12.93;;;10.77;;
30824;SDS011;17550;45.486;12.222;2023-06-14T02:36:49;14.75;;;10.23;;
30824;SDS011;17550;45.486;12.222;2023-06-14T02:39:14;14.23;;;10.63;;
30824;SDS011;17550;45.486;12.222;2023-06-14T02:41:41;15.18;;;11.95;;
30824;SDS011;17550;45.486;12.222;2023-06-14T02:44:07;16.75;;;10.98;;
30824;SDS011;17550;45.486;12.222;2023-06-14T02:46:32;13.57;;;11.23;;
30824;SDS011;17550;45.486;12.222;2023-06-14T02:48:58;16.77;;;12.48;;
30824;SDS011;17550;45.486;12.222;2023-06-14T02:51:24;17.40;;;11.75;;
30824;SDS011;17550;45.486;12.222;2023-06-14T02:53:50;16.20;;;12.60;;
30824;SDS011;17550;45.486;12.222;2023-06-14T02:56:16;14.93;;;11.88;;
30824;SDS011;17550;45.486;12.222;2023-06-14T02:58:44;14.18;;;11.38;;
30824;SDS011;17550;45.486;12.222;2023-06-14T03:01:09;16.70;;;13.00;;
30824;SDS011;17550;45.486;12.222;2023-06-14T03:03:37;19.73;;;12.50;;
30824;SDS011;17550;45.486;12.222;2023-06-14T03:06:03;18.52;;;13.45;;
30824;SDS011;17550;45.486;12.222;2023-06-14T03:08:32;17.38;;;12.95;;
30824;SDS011;17550;45.486;12.222;2023-06-14T03:11:03;18.38;;;13.23;;
30824;SDS011;17550;45.486;12.222;2023-06-14T03:13:36;18.92;;;12.00;;
30824;SDS011;17550;45.486;12.222;2023-06-14T03:16:02;13.88;;;11.32;;
30824;SDS011;17550;45.486;12.222;2023-06-14T03:18:31;21.85;;;12.45;;
30824;SDS011;17550;45.486;12.222;2023-06-14T03:21:00;18.27;;;12.52;;
30824;SDS011;17550;45.486;12.222;2023-06-14T03:23:26;14.73;;;11.48;;
30824;SDS011;17550;45.486;12.222;2023-06-14T03:25:52;16.02;;;12.27;;
30824;SDS011;17550;45.486;12.222;2023-06-14T03:28:18;20.23;;;12.10;;
30824;SDS011;17550;45.486;12.222;2023-06-14T03:30:43;15.88;;;11.05;;
30824;SDS011;17550;45.486;12.222;2023-06-14T03:33:09;14.85;;;11.48;;
30824;SDS011;17550;45.486;12.222;2023-06-14T03:35:35;13.98;;;11.00;;
30824;SDS011;17550;45.486;12.222;2023-06-14T03:38:02;16.27;;;11.23;;
30824;SDS011;17550;45.486;12.222;2023-06-14T03:40:28;16.80;;;11.73;;
30824;SDS011;17550;45.486;12.222;2023-06-14T03:42:54;17.48;;;11.52;;
30824;SDS011;17550;45.486;12.222;2023-06-14T03:45:20;13.88;;;10.60;;
30824;SDS011;17550;45.486;12.222;2023-06-14T03:47:46;15.30;;;11.70;;
30824;SDS011;17550;45.486;12.222;2023-06-14T03:50:12;13.23;;;10.93;;
30824;SDS011;17550;45.486;12.222;2023-06-14T03:52:38;18.60;;;11.77;;
30824;SDS011;17550;45.486;12.222;2023-06-14T03:55:04;16.25;;;10.00;;
30824;SDS011;17550;45.486;12.222;2023-06-14T03:57:30;10.20;;;8.68;;
30824;SDS011;17550;45.486;12.222;2023-06-14T03:59:56;10.70;;;8.52;;
30824;SDS011;17550;45.486;12.222;2023-06-14T04:02:22;12.20;;;8.40;;
30824;SDS011;17550;45.486;12.222;2023-06-14T04:04:48;11.18;;;8.18;;
30824;SDS011;17550;45.486;12.222;2023-06-14T04:07:14;11.27;;;7.22;;
30824;SDS011;17550;45.486;12.222;2023-06-14T04:09:44;8.40;;;6.90;;
30824;SDS011;17550;45.486;12.222;2023-06-14T04:12:10;8.70;;;6.53;;
30824;SDS011;17550;45.486;12.222;2023-06-14T04:14:39;11.65;;;8.70;;
30824;SDS011;17550;45.486;12.222;2023-06-14T04:17:05;14.13;;;9.05;;
30824;SDS011;17550;45.486;12.222;2023-06-14T04:19:31;12.60;;;9.13;;
30824;SDS011;17550;45.486;12.222;2023-06-14T04:21:57;10.25;;;8.50;;
30824;SDS011;17550;45.486;12.222;2023-06-14T04:24:26;12.45;;;8.93;;
30824;SDS011;17550;45.486;12.222;2023-06-14T04:26:56;10.60;;;8.25;;
30824;SDS011;17550;45.486;12.222;2023-06-14T04:29:26;12.02;;;8.52;;
30824;SDS011;17550;45.486;12.222;2023-06-14T04:31:53;12.75;;;7.72;;
30824;SDS011;17550;45.486;12.222;2023-06-14T04:34:19;13.40;;;8.05;;
30824;SDS011;17550;45.486;12.222;2023-06-14T04:36:46;9.13;;;7.43;;
30824;SDS011;17550;45.486;12.222;2023-06-14T04:39:21;7.50;;;6.18;;
30824;SDS011;17550;45.486;12.222;2023-06-14T04:41:48;9.30;;;6.68;;
30824;SDS011;17550;45.486;12.222;2023-06-14T04:44:17;8.80;;;7.05;;
30824;SDS011;17550;45.486;12.222;2023-06-14T04:46:44;8.70;;;6.93;;
30824;SDS011;17550;45.486;12.222;2023-06-14T04:49:17;13.35;;;7.70;;
30824;SDS011;17550;45.486;12.222;2023-06-14T04:51:44;10.35;;;7.47;;
30824;SDS011;17550;45.486;12.222;2023-06-14T04:54:11;10.13;;;7.03;;
30824;SDS011;17550;45.486;12.222;2023-06-14T04:56:40;6.78;;;5.90;;
30824;SDS011;17550;45.486;12.222;2023-06-14T04:59:07;6.72;;;6.03;;
30824;SDS011;17550;45.486;12.222;2023-06-14T05:01:34;8.45;;;6.15;;
30824;SDS011;17550;45.486;12.222;2023-06-14T05:04:00;5.60;;;4.80;;
30824;SDS011;17550;45.486;12.222;2023-06-14T05:06:26;5.90;;;5.10;;
30824;SDS011;17550;45.486;12.222;2023-06-14T05:08:52;9.88;;;5.32;;
30824;SDS011;17550;45.486;12.222;2023-06-14T05:11:18;8.10;;;5.80;;
30824;SDS011;17550;45.486;12.222;2023-06-14T05:13:44;7.05;;;5.78;;
30824;SDS011;17550;45.486;12.222;2023-06-14T05:16:13;8.35;;;5.97;;
30824;SDS011;17550;45.486;12.222;2023-06-14T05:18:40;11.35;;;6.82;;
30824;SDS011;17550;45.486;12.222;2023-06-14T05:21:06;7.38;;;6.60;;
30824;SDS011;17550;45.486;12.222;2023-06-14T05:23:32;9.80;;;7.47;;
30824;SDS011;17550;45.486;12.222;2023-06-14T05:25:57;11.00;;;7.72;;
30824;SDS011;17550;45.486;12.222;2023-06-14T05:28:23;13.70;;;7.10;;
30824;SDS011;17550;45.486;12.222;2023-06-14T05:30:49;11.52;;;7.20;;
30824;SDS011;17550;45.486;12.222;2023-06-14T05:33:16;8.40;;;7.50;;
30824;SDS011;17550;45.486;12.222;2023-06-14T05:35:42;10.32;;;7.43;;
30824;SDS011;17550;45.486;12.222;2023-06-14T05:38:07;9.02;;;7.22;;
30824;SDS011;17550;45.486;12.222;2023-06-14T05:40:33;11.45;;;8.02;;
30824;SDS011;17550;45.486;12.222;2023-06-14T05:42:59;9.10;;;8.20;;
30824;SDS011;17550;45.486;12.222;2023-06-14T05:45:25;12.55;;;8.32;;
30824;SDS011;17550;45.486;12.222;2023-06-14T05:47:51;9.15;;;7.20;;
30824;SDS011;17550;45.486;12.222;2023-06-14T05:50:19;9.98;;;7.57;;
30824;SDS011;17550;45.486;12.222;2023-06-14T05:52:45;11.38;;;8.32;;
30824;SDS011;17550;45.486;12.222;2023-06-14T05:55:11;13.73;;;8.13;;
30824;SDS011;17550;45.486;12.222;2023-06-14T05:57:38;11.93;;;7.43;;
30824;SDS011;17550;45.486;12.222;2023-06-14T06:00:05;14.63;;;8.15;;
30824;SDS011;17550;45.486;12.222;2023-06-14T06:02:40;14.13;;;7.95;;
30824;SDS011;17550;45.486;12.222;2023-06-14T06:05:08;9.80;;;8.27;;
30824;SDS011;17550;45.486;12.222;2023-06-14T06:07:34;10.00;;;8.90;;
30824;SDS011;17550;45.486;12.222;2023-06-14T06:10:00;9.98;;;7.85;;
30824;SDS011;17550;45.486;12.222;2023-06-14T06:12:26;10.27;;;7.88;;
30824;SDS011;17550;45.486;12.222;2023-06-14T06:14:52;11.05;;;8.85;;
30824;SDS011;17550;45.486;12.222;2023-06-14T06:17:17;12.35;;;8.93;;
30824;SDS011;17550;45.486;12.222;2023-06-14T06:19:43;11.15;;;7.57;;
30824;SDS011;17550;45.486;12.222;2023-06-14T06:22:09;12.57;;;7.65;;
30824;SDS011;17550;45.486;12.222;2023-06-14T06:24:35;10.80;;;8.05;;
30824;SDS011;17550;45.486;12.222;2023-06-14T06:27:01;10.25;;;7.95;;
30824;SDS011;17550;45.486;12.222;2023-06-14T06:29:27;8.55;;;6.78;;
30824;SDS011;17550;45.486;12.222;2023-06-14T06:31:52;12.13;;;7.85;;
30824;SDS011;17550;45.486;12.222;2023-06-14T06:34:18;8.88;;;6.90;;
30824;SDS011;17550;45.486;12.222;2023-06-14T06:36:44;7.38;;;5.85;;
30824;SDS011;17550;45.486;12.222;2023-06-14T06:39:10;9.82;;;6.35;;
30824;SDS011;17550;45.486;12.222;2023-06-14T06:41:37;7.75;;;4.68;;
30824;SDS011;17550;45.486;12.222;2023-06-14T06:44:04;7.93;;;4.85;;
30824;SDS011;17550;45.486;12.222;2023-06-14T06:46:31;9.02;;;5.13;;
30824;SDS011;17550;45.486;12.222;2023-06-14T06:48:57;7.70;;;5.07;;
30824;SDS011;17550;45.486;12.222;2023-06-14T06:51:23;8.10;;;4.90;;
30824;SDS011;17550;45.486;12.222;2023-06-14T06:53:58;6.63;;;4.40;;
30824;SDS011;17550;45.486;12.222;2023-06-14T06:56:23;8.65;;;4.97;;
30824;SDS011;17550;45.486;12.222;2023-06-14T06:58:52;13.60;;;5.30;;
30824;SDS011;17550;45.486;12.222;2023-06-14T07:01:18;6.63;;;5.30;;
30824;SDS011;17550;45.486;12.222;2023-06-14T07:03:46;13.80;;;5.07;;
30824;SDS011;17550;45.486;12.222;2023-06-14T07:06:12;7.05;;;4.75;;
30824;SDS011;17550;45.486;12.222;2023-06-14T07:08:38;8.43;;;4.82;;
30824;SDS011;17550;45.486;12.222;2023-06-14T07:11:04;9.88;;;5.45;;
30824;SDS011;17550;45.486;12.222;2023-06-14T07:13:30;5.55;;;4.45;;
30824;SDS011;17550;45.486;12.222;2023-06-14T07:15:59;12.65;;;5.07;;
30824;SDS011;17550;45.486;12.222;2023-06-14T07:18:26;8.18;;;4.57;;
30824;SDS011;17550;45.486;12.222;2023-06-14T07:20:52;8.43;;;4.60;;
30824;SDS011;17550;45.486;12.222;2023-06-14T07:23:19;9.60;;;4.65;;
30824;SDS011;17550;45.486;12.222;2023-06-14T07:25:48;10.73;;;4.82;;
30824;SDS011;17550;45.486;12.222;2023-06-14T07:28:14;8.32;;;5.75;;
30824;SDS011;17550;45.486;12.222;2023-06-14T07:30:41;6.30;;;5.05;;
30824;SDS011;17550;45.486;12.222;2023-06-14T07:33:07;9.52;;;4.60;;
30824;SDS011;17550;45.486;12.222;2023-06-14T07:35:33;10.02;;;5.10;;
30824;SDS011;17550;45.486;12.222;2023-06-14T07:38:01;11.30;;;4.80;;
30824;SDS011;17550;45.486;12.222;2023-06-14T07:40:27;6.95;;;4.95;;
30824;SDS011;17550;45.486;12.222;2023-06-14T07:42:52;7.00;;;4.72;;
30824;SDS011;17550;45.486;12.222;2023-06-14T07:45:19;9.25;;;4.90;;
30824;SDS011;17550;45.486;12.222;2023-06-14T07:47:45;6.95;;;4.90;;
30824;SDS011;17550;45.486;12.222;2023-06-14T07:50:11;8.63;;;4.80;;
30824;SDS011;17550;45.486;12.222;2023-06-14T07:52:38;11.90;;;4.97;;
30824;SDS011;17550;45.486;12.222;2023-06-14T07:55:04;8.77;;;4.28;;
30824;SDS011;17550;45.486;12.222;2023-06-14T07:57:31;9.20;;;4.22;;
30824;SDS011;17550;45.486;12.222;2023-06-14T07:59:56;7.30;;;3.83;;
30824;SDS011;17550;45.486;12.222;2023-06-14T08:02:22;6.90;;;4.28;;
30824;SDS011;17550;45.486;12.222;2023-06-14T08:04:48;10.80;;;4.55;;
30824;SDS011;17550;45.486;12.222;2023-06-14T08:07:14;5.45;;;4.10;;
30824;SDS011;17550;45.486;12.222;2023-06-14T08:09:40;8.77;;;4.57;;
30824;SDS011;17550;45.486;12.222;2023-06-14T08:12:06;4.72;;;3.65;;
30824;SDS011;17550;45.486;12.222;2023-06-14T08:14:34;5.45;;;4.20;;
30824;SDS011;17550;45.486;12.222;2023-06-14T08:17:01;11.82;;;4.45;;
30824;SDS011;17550;45.486;12.222;2023-06-14T08:19:26;9.90;;;4.50;;
30824;SDS011;17550;45.486;12.222;2023-06-14T08:21:53;8.75;;;4.97;;
30824;SDS011;17550;45.486;12.222;2023-06-14T08:24:23;8.65;;;5.07;;
30824;SDS011;17550;45.486;12.222;2023-06-14T08:26:54;8.68;;;4.65;;
30824;SDS011;17550;45.486;12.222;2023-06-14T08:29:21;6.03;;;3.92;;
30824;SDS011;17550;45.486;12.222;2023-06-14T08:31:47;7.32;;;4.30;;
30824;SDS011;17550;45.486;12.222;2023-06-14T08:34:13;9.82;;;3.97;;
30824;SDS011;17550;45.486;12.222;2023-06-14T08:36:38;8.63;;;4.75;;
30824;SDS011;17550;45.486;12.222;2023-06-14T08:39:04;19.33;;;4.57;;
30824;SDS011;17550;45.486;12.222;2023-06-14T08:41:30;10.85;;;4.32;;
30824;SDS011;17550;45.486;12.222;2023-06-14T08:44:00;6.97;;;4.35;;
30824;SDS011;17550;45.486;12.222;2023-06-14T08:46:26;6.55;;;4.50;;
30824;SDS011;17550;45.486;12.222;2023-06-14T08:48:52;7.40;;;3.97;;
30824;SDS011;17550;45.486;12.222;2023-06-14T08:51:23;8.70;;;4.55;;
30824;SDS011;17550;45.486;12.222;2023-06-14T08:53:52;11.88;;;4.25;;
30824;SDS011;17550;45.486;12.222;2023-06-14T08:56:29;6.32;;;4.00;;
30824;SDS011;17550;45.486;12.222;2023-06-14T08:58:56;11.77;;;4.88;;
30824;SDS011;17550;45.486;12.222;2023-06-14T09:01:28;5.45;;;4.60;;
30824;SDS011;17550;45.486;12.222;2023-06-14T09:03:54;6.15;;;4.30;;
30824;SDS011;17550;45.486;12.222;2023-06-14T09:06:20;9.55;;;4.15;;
30824;SDS011;17550;45.486;12.222;2023-06-14T09:08:48;16.65;;;4.57;;
30824;SDS011;17550;45.486;12.222;2023-06-14T09:11:15;6.55;;;4.53;;
30824;SDS011;17550;45.486;12.222;2023-06-14T09:13:44;8.32;;;4.43;;
30824;SDS011;17550;45.486;12.222;2023-06-14T09:16:11;10.80;;;4.50;;
30824;SDS011;17550;45.486;12.222;2023-06-14T09:18:38;9.05;;;4.63;;
30824;SDS011;17550;45.486;12.222;2023-06-14T09:21:11;7.15;;;4.63;;
30824;SDS011;17550;45.486;12.222;2023-06-14T09:23:38;5.43;;;4.00;;
30824;SDS011;17550;45.486;12.222;2023-06-14T09:26:11;7.63;;;4.10;;
30824;SDS011;17550;45.486;12.222;2023-06-14T09:28:41;8.32;;;4.07;;
30824;SDS011;17550;45.486;12.222;2023-06-14T09:31:10;6.82;;;4.60;;
30824;SDS011;17550;45.486;12.222;2023-06-14T09:33:36;7.00;;;4.47;;
30824;SDS011;17550;45.486;12.222;2023-06-14T09:36:03;8.02;;;4.22;;
30824;SDS011;17550;45.486;12.222;2023-06-14T09:38:35;6.55;;;4.40;;
30824;SDS011;17550;45.486;12.222;2023-06-14T09:41:05;8.70;;;4.50;;
30824;SDS011;17550;45.486;12.222;2023-06-14T09:43:31;6.38;;;4.70;;
30824;SDS011;17550;45.486;12.222;2023-06-14T09:45:59;7.32;;;4.35;;
30824;SDS011;17550;45.486;12.222;2023-06-14T09:48:26;9.93;;;4.82;;
30824;SDS011;17550;45.486;12.222;2023-06-14T09:50:51;10.60;;;4.50;;
30824;SDS011;17550;45.486;12.222;2023-06-14T09:53:23;8.73;;;4.53;;
30824;SDS011;17550;45.486;12.222;2023-06-14T09:55:50;8.55;;;4.72;;
30824;SDS011;17550;45.486;12.222;2023-06-14T09:58:20;6.97;;;4.50;;
30824;SDS011;17550;45.486;12.222;2023-06-14T10:00:48;7.22;;;4.43;;
30824;SDS011;17550;45.486;12.222;2023-06-14T10:03:18;5.30;;;3.88;;
30824;SDS011;17550;45.486;12.222;2023-06-14T10:05:56;7.72;;;4.72;;
30824;SDS011;17550;45.486;12.222;2023-06-14T10:08:27;7.68;;;4.40;;
30824;SDS011;17550;45.486;12.222;2023-06-14T10:10:57;7.47;;;4.00;;
30824;SDS011;17550;45.486;12.222;2023-06-14T10:13:23;6.40;;;4.13;;
30824;SDS011;17550;45.486;12.222;2023-06-14T10:21:22;8.88;;;4.28;;
30824;SDS011;17550;45.486;12.222;2023-06-14T10:23:50;9.98;;;4.20;;
30824;SDS011;17550;45.486;12.222;2023-06-14T10:26:20;9.27;;;3.97;;
30824;SDS011;17550;45.486;12.222;2023-06-14T10:29:08;5.55;;;4.50;;
30824;SDS011;17550;45.486;12.222;2023-06-14T10:31:43;8.18;;;4.30;;
30824;SDS011;17550;45.486;12.222;2023-06-14T10:34:09;6.80;;;4.32;;
30824;SDS011;17550;45.486;12.222;2023-06-14T10:36:35;6.30;;;4.53;;
30824;SDS011;17550;45.486;12.222;2023-06-14T10:46:38;9.88;;;4.10;;
30824;SDS011;17550;45.486;12.222;2023-06-14T10:49:04;7.22;;;4.63;;
30824;SDS011;17550;45.486;12.222;2023-06-14T10:51:37;6.00;;;4.60;;
30824;SDS011;17550;45.486;12.222;2023-06-14T10:54:14;9.55;;;4.30;;
30824;SDS011;17550;45.486;12.222;2023-06-14T10:56:47;9.82;;;4.45;;
30824;SDS011;17550;45.486;12.222;2023-06-14T10:59:17;6.78;;;4.35;;
30824;SDS011;17550;45.486;12.222;2023-06-14T11:04:23;5.78;;;4.35;;
30824;SDS011;17550;45.486;12.222;2023-06-14T11:12:37;5.95;;;4.07;;
30824;SDS011;17550;45.486;12.222;2023-06-14T11:15:05;8.57;;;4.35;;
30824;SDS011;17550;45.486;12.222;2023-06-14T11:17:32;9.18;;;4.03;;
30824;SDS011;17550;45.486;12.222;2023-06-14T11:20:11;11.45;;;4.45;;
30824;SDS011;17550;45.486;12.222;2023-06-14T11:22:43;8.52;;;4.20;;
30824;SDS011;17550;45.486;12.222;2023-06-14T11:25:09;11.68;;;4.05;;
30824;SDS011;17550;45.486;12.222;2023-06-14T11:27:38;6.30;;;4.05;;
30824;SDS011;17550;45.486;12.222;2023-06-14T11:30:07;8.13;;;4.10;;
30824;SDS011;17550;45.486;12.222;2023-06-14T11:32:34;10.68;;;4.05;;
30824;SDS011;17550;45.486;12.222;2023-06-14T11:34:59;9.88;;;4.22;;
30824;SDS011;17550;45.486;12.222;2023-06-14T11:37:26;21.67;;;4.13;;
30824;SDS011;17550;45.486;12.222;2023-06-14T11:39:57;6.70;;;4.13;;
30824;SDS011;17550;45.486;12.222;2023-06-14T11:42:24;6.28;;;3.88;;
30824;SDS011;17550;45.486;12.222;2023-06-14T11:44:51;7.00;;;4.10;;
30824;SDS011;17550;45.486;12.222;2023-06-14T11:47:18;7.18;;;4.15;;
30824;SDS011;17550;45.486;12.222;2023-06-14T11:49:45;6.75;;;3.88;;
30824;SDS011;17550;45.486;12.222;2023-06-14T11:52:11;6.07;;;4.15;;
30824;SDS011;17550;45.486;12.222;2023-06-14T11:54:37;6.22;;;3.95;;
30824;SDS011;17550;45.486;12.222;2023-06-14T11:57:09;7.03;;;4.20;;
30824;SDS011;17550;45.486;12.222;2023-06-14T11:59:39;5.45;;;3.80;;
30824;SDS011;17550;45.486;12.222;2023-06-14T12:02:05;6.22;;;3.78;;
30824;SDS011;17550;45.486;12.222;2023-06-14T12:04:32;6.95;;;4.32;;
30824;SDS011;17550;45.486;12.222;2023-06-14T12:07:08;8.75;;;4.43;;
30824;SDS011;17550;45.486;12.222;2023-06-14T12:09:36;6.82;;;4.22;;
30824;SDS011;17550;45.486;12.222;2023-06-14T12:12:01;8.30;;;3.90;;
30824;SDS011;17550;45.486;12.222;2023-06-14T12:14:29;9.07;;;4.28;;
30824;SDS011;17550;45.486;12.222;2023-06-14T12:17:04;8.85;;;3.90;;
30824;SDS011;17550;45.486;12.222;2023-06-14T12:19:43;5.05;;;3.90;;
30824;SDS011;17550;45.486;12.222;2023-06-14T12:22:11;14.18;;;10.25;;
30824;SDS011;17550;45.486;12.222;2023-06-14T12:24:38;5.13;;;4.20;;
30824;SDS011;17550;45.486;12.222;2023-06-14T12:27:04;5.78;;;3.50;;
30824;SDS011;17550;45.486;12.222;2023-06-14T12:29:33;9.52;;;4.15;;
30824;SDS011;17550;45.486;12.222;2023-06-14T12:32:00;5.15;;;3.90;;
30824;SDS011;17550;45.486;12.222;2023-06-14T12:34:26;6.38;;;4.20;;
30824;SDS011;17550;45.486;12.222;2023-06-14T12:36:53;8.27;;;4.28;;
30824;SDS011;17550;45.486;12.222;2023-06-14T12:39:19;7.35;;;4.10;;
30824;SDS011;17550;45.486;12.222;2023-06-14T12:41:45;5.70;;;4.35;;
30824;SDS011;17550;45.486;12.222;2023-06-14T12:44:12;7.57;;;4.43;;
30824;SDS011;17550;45.486;12.222;2023-06-14T12:46:38;8.27;;;4.30;;
30824;SDS011;17550;45.486;12.222;2023-06-14T12:49:05;6.72;;;4.25;;
30824;SDS011;17550;45.486;12.222;2023-06-14T12:51:32;9.43;;;4.80;;
30824;SDS011;17550;45.486;12.222;2023-06-14T12:53:58;7.82;;;4.70;;
30824;SDS011;17550;45.486;12.222;2023-06-14T12:56:24;10.98;;;4.60;;
30824;SDS011;17550;45.486;12.222;2023-06-14T12:58:51;11.65;;;4.43;;
30824;SDS011;17550;45.486;12.222;2023-06-14T13:01:17;6.13;;;4.53;;
30824;SDS011;17550;45.486;12.222;2023-06-14T13:03:43;8.20;;;4.55;;
30824;SDS011;17550;45.486;12.222;2023-06-14T13:06:08;9.90;;;4.38;;
30824;SDS011;17550;45.486;12.222;2023-06-14T13:08:34;6.10;;;4.03;;
30824;SDS011;17550;45.486;12.222;2023-06-14T13:11:02;6.22;;;4.28;;
30824;SDS011;17550;45.486;12.222;2023-06-14T13:13:28;7.85;;;4.72;;
30824;SDS011;17550;45.486;12.222;2023-06-14T13:15:53;9.77;;;4.20;;
30824;SDS011;17550;45.486;12.222;2023-06-14T13:18:19;6.93;;;4.25;;
30824;SDS011;17550;45.486;12.222;2023-06-14T13:20:45;10.57;;;4.72;;
30824;SDS011;17550;45.486;12.222;2023-06-14T13:23:12;7.13;;;4.53;;
30824;SDS011;17550;45.486;12.222;2023-06-14T13:25:37;6.82;;;4.60;;
30824;SDS011;17550;45.486;12.222;2023-06-14T13:28:04;9.02;;;4.85;;
30824;SDS011;17550;45.486;12.222;2023-06-14T13:30:30;5.70;;;3.97;;
30824;SDS011;17550;45.486;12.222;2023-06-14T13:32:59;8.55;;;5.18;;
30824;SDS011;17550;45.486;12.222;2023-06-14T13:35:25;8.10;;;4.70;;
30824;SDS011;17550;45.486;12.222;2023-06-14T13:37:51;11.40;;;5.38;;
30824;SDS011;17550;45.486;12.222;2023-06-14T13:40:17;10.45;;;5.50;;
30824;SDS011;17550;45.486;12.222;2023-06-14T13:42:43;9.68;;;4.78;;
30824;SDS011;17550;45.486;12.222;2023-06-14T13:45:11;7.65;;;4.80;;
30824;SDS011;17550;45.486;12.222;2023-06-14T13:47:38;7.70;;;4.70;;
30824;SDS011;17550;45.486;12.222;2023-06-14T13:50:04;5.45;;;4.30;;
30824;SDS011;17550;45.486;12.222;2023-06-14T13:52:30;13.88;;;4.60;;
30824;SDS011;17550;45.486;12.222;2023-06-14T13:54:56;7.00;;;4.20;;
30824;SDS011;17550;45.486;12.222;2023-06-14T13:57:22;9.10;;;4.90;;
30824;SDS011;17550;45.486;12.222;2023-06-14T13:59:48;9.77;;;4.45;;
30824;SDS011;17550;45.486;12.222;2023-06-14T14:02:13;8.40;;;5.13;;
30824;SDS011;17550;45.486;12.222;2023-06-14T14:04:39;5.10;;;4.28;;
30824;SDS011;17550;45.486;12.222;2023-06-14T14:07:06;9.48;;;4.60;;
30824;SDS011;17550;45.486;12.222;2023-06-14T14:09:32;9.40;;;4.25;;
30824;SDS011;17550;45.486;12.222;2023-06-14T14:11:59;7.85;;;5.07;;
30824;SDS011;17550;45.486;12.222;2023-06-14T14:14:27;7.57;;;5.30;;
30824;SDS011;17550;45.486;12.222;2023-06-14T14:16:53;11.43;;;5.72;;
30824;SDS011;17550;45.486;12.222;2023-06-14T14:19:20;8.45;;;5.03;;
30824;SDS011;17550;45.486;12.222;2023-06-14T14:21:47;10.25;;;5.10;;
30824;SDS011;17550;45.486;12.222;2023-06-14T14:24:13;8.32;;;4.88;;
30824;SDS011;17550;45.486;12.222;2023-06-14T14:26:39;8.88;;;4.28;;
30824;SDS011;17550;45.486;12.222;2023-06-14T14:29:04;12.50;;;4.15;;
30824;SDS011;17550;45.486;12.222;2023-06-14T14:31:31;8.98;;;4.35;;
30824;SDS011;17550;45.486;12.222;2023-06-14T14:33:56;6.00;;;4.30;;
30824;SDS011;17550;45.486;12.222;2023-06-14T14:36:22;5.78;;;4.03;;
30824;SDS011;17550;45.486;12.222;2023-06-14T14:38:48;10.05;;;3.58;;
30824;SDS011;17550;45.486;12.222;2023-06-14T14:41:14;5.40;;;3.92;;
30824;SDS011;17550;45.486;12.222;2023-06-14T14:43:39;13.70;;;4.20;;
30824;SDS011;17550;45.486;12.222;2023-06-14T14:46:05;6.40;;;3.60;;
30824;SDS011;17550;45.486;12.222;2023-06-14T14:48:31;9.52;;;3.45;;
30824;SDS011;17550;45.486;12.222;2023-06-14T14:50:57;7.85;;;3.88;;